createdAt,value
2022-10-14T00:00:41.249Z,67.00
2022-10-14T00:01:41.273Z,66.40
2022-10-14T00:02:41.211Z,67.90
2022-10-14T00:03:41.204Z,68.30
2022-10-14T00:04:41.191Z,66.00
2022-10-14T00:05:41.200Z,67.50
2022-10-14T00:06:41.163Z,64.90
2022-10-14T00:07:41.161Z,67.90
2022-10-14T00:08:41.143Z,65.90
2022-10-14T00:09:41.146Z,64.90
2022-10-14T00:10:41.147Z,64.70
2022-10-14T00:11:41.132Z,66.70
2022-10-14T00:12:41.105Z,68.20
2022-10-14T00:13:41.099Z,64.70
2022-10-14T00:14:41.084Z,64.70
2022-10-14T00:15:41.097Z,64.60
2022-10-14T00:16:41.063Z,62.50
2022-10-14T00:17:41.056Z,63.20
2022-10-14T00:18:41.036Z,62.90
2022-10-14T00:19:41.034Z,64.60
2022-10-14T00:20:41.036Z,63.10
2022-10-14T00:21:41.008Z,60.80
2022-10-14T00:22:40.998Z,61.50
2022-10-14T00:23:40.987Z,60.20
2022-10-14T00:24:40.969Z,61.00
2022-10-14T00:25:40.979Z,64.10
2022-10-14T00:26:40.952Z,63.10
2022-10-14T00:27:40.949Z,63.20
2022-10-14T00:28:41.014Z,63.30
2022-10-14T00:29:40.931Z,63.40
2022-10-14T00:30:40.927Z,63.20
2022-10-14T00:31:40.911Z,62.90
2022-10-14T00:32:40.891Z,61.00
2022-10-14T00:33:40.882Z,58.70
2022-10-14T00:34:40.862Z,59.70
2022-10-14T00:35:40.872Z,63.00
2022-10-14T00:36:40.842Z,61.60
2022-10-14T00:37:40.843Z,62.20
2022-10-14T00:38:40.825Z,62.20
2022-10-14T00:39:40.817Z,61.60
2022-10-14T00:40:40.815Z,62.20
2022-10-14T00:41:40.794Z,63.30
2022-10-14T00:42:40.785Z,61.90
2022-10-14T00:43:40.785Z,59.70
2022-10-14T00:44:40.767Z,61.30
2022-10-14T00:45:40.775Z,59.10
2022-10-14T00:46:40.747Z,60.50
2022-10-14T00:47:40.738Z,59.50
2022-10-14T00:48:40.717Z,58.60
2022-10-14T00:49:40.707Z,61.00
2022-10-14T00:50:40.709Z,58.60
2022-10-14T00:51:40.688Z,60.90
2022-10-14T00:52:40.682Z,60.80
2022-10-14T00:53:40.668Z,59.60
2022-10-14T00:54:40.657Z,58.10
2022-10-14T00:55:40.669Z,60.10
2022-10-14T00:56:40.639Z,59.50
2022-10-14T00:57:40.620Z,58.90
2022-10-14T00:58:40.610Z,57.30
2022-10-14T00:59:40.601Z,57.30
2022-10-14T01:00:40.677Z,57.80
2022-10-14T01:01:40.582Z,57.90
2022-10-14T01:02:40.570Z,54.10
2022-10-14T01:03:40.562Z,54.70
2022-10-14T01:04:40.543Z,57.80
2022-10-14T01:05:40.553Z,57.80
2022-10-14T01:06:40.522Z,57.20
2022-10-14T01:07:40.521Z,57.60
2022-10-14T01:08:40.504Z,58.00
2022-10-14T01:09:40.503Z,55.20
2022-10-14T01:10:40.494Z,55.50
2022-10-14T01:11:40.482Z,55.30
2022-10-14T01:12:40.467Z,58.10
2022-10-14T01:13:40.455Z,56.30
2022-10-14T01:14:40.436Z,59.20
2022-10-14T01:15:40.455Z,56.60
2022-10-14T01:16:40.424Z,55.90
2022-10-14T01:17:40.407Z,55.90
2022-10-14T01:18:40.399Z,58.00
2022-10-14T01:19:40.395Z,58.40
2022-10-14T01:20:40.388Z,56.50
2022-10-14T01:21:40.369Z,54.20
2022-10-14T01:22:40.356Z,54.80
2022-10-14T01:23:40.348Z,56.40
2022-10-14T01:24:40.350Z,56.20
2022-10-14T01:25:40.340Z,55.70
2022-10-14T01:26:40.309Z,51.50
2022-10-14T01:27:40.300Z,52.60
2022-10-14T01:28:40.345Z,53.20
2022-10-14T01:29:40.281Z,53.20
2022-10-14T01:30:40.282Z,50.80
2022-10-14T01:31:40.264Z,51.70
2022-10-14T01:32:40.253Z,50.80
2022-10-14T01:33:40.253Z,52.90
2022-10-14T01:34:40.233Z,50.90
2022-10-14T01:35:40.233Z,51.00
2022-10-14T01:36:40.204Z,51.10
2022-10-14T01:37:40.194Z,51.90
2022-10-14T01:38:40.187Z,48.00
2022-10-14T01:39:40.175Z,50.80
2022-10-14T01:40:40.185Z,51.00
2022-10-14T01:41:40.155Z,50.40
2022-10-14T01:42:40.136Z,51.70
2022-10-14T01:43:40.143Z,52.60
2022-10-14T01:44:40.116Z,50.80
2022-10-14T01:45:40.129Z,50.20
2022-10-14T01:46:40.104Z,49.30
2022-10-14T01:47:40.087Z,47.90
2022-10-14T01:48:40.077Z,49.70
2022-10-14T01:49:40.066Z,49.60
2022-10-14T01:50:40.068Z,49.90
2022-10-14T01:51:40.049Z,47.90
2022-10-14T01:52:40.033Z,47.10
2022-10-14T01:53:40.028Z,44.40
2022-10-14T01:54:40.010Z,48.10
2022-10-14T01:55:40.022Z,49.00
2022-10-14T01:56:40.822Z,51.70
2022-10-14T01:57:39.982Z,49.70
2022-10-14T01:58:39.971Z,45.70
2022-10-14T01:59:39.961Z,44.60
2022-10-14T02:00:39.968Z,46.10
2022-10-14T02:01:40.011Z,47.60
2022-10-14T02:02:39.923Z,44.90
2022-10-14T02:03:39.922Z,46.20
2022-10-14T02:04:39.902Z,49.20
2022-10-14T02:05:39.913Z,48.80
2022-10-14T02:06:39.884Z,46.70
2022-10-14T02:07:39.875Z,48.00
2022-10-14T02:08:39.863Z,47.80
2022-10-14T02:09:39.855Z,48.50
2022-10-14T02:10:39.864Z,46.50
2022-10-14T02:11:39.851Z,48.40
2022-10-14T02:12:39.826Z,46.20
2022-10-14T02:13:39.808Z,47.50
2022-10-14T02:14:39.796Z,47.20
2022-10-14T02:15:39.807Z,46.50
2022-10-14T02:16:39.776Z,45.30
2022-10-14T02:17:39.769Z,48.10
2022-10-14T02:18:39.755Z,47.00
2022-10-14T02:19:39.771Z,45.00
2022-10-14T02:20:39.748Z,46.20
2022-10-14T02:21:39.719Z,45.50
2022-10-14T02:22:39.708Z,46.50
2022-10-14T02:23:39.709Z,45.50
2022-10-14T02:24:39.689Z,46.60
2022-10-14T02:25:39.699Z,45.90
2022-10-14T02:26:39.660Z,45.00
2022-10-14T02:27:39.660Z,45.50
2022-10-14T02:28:39.681Z,44.90
2022-10-14T02:29:39.643Z,45.90
2022-10-14T02:30:39.641Z,44.90
2022-10-14T02:31:39.611Z,44.70
2022-10-14T02:32:39.602Z,44.60
2022-10-14T02:33:39.594Z,44.40
2022-10-14T02:34:39.584Z,43.90
2022-10-14T02:35:39.602Z,43.70
2022-10-14T02:36:39.554Z,42.00
2022-10-14T02:37:39.560Z,40.80
2022-10-14T02:38:39.535Z,42.00
2022-10-14T02:39:39.535Z,41.50
2022-10-14T02:40:39.536Z,42.10
2022-10-14T02:41:39.505Z,40.70
2022-10-14T02:42:39.495Z,42.00
2022-10-14T02:43:39.496Z,41.30
2022-10-14T02:44:39.476Z,39.10
2022-10-14T02:45:39.484Z,39.20
2022-10-14T02:46:39.446Z,40.00
2022-10-14T02:47:39.447Z,40.30
2022-10-14T02:48:39.436Z,39.90
2022-10-14T02:49:39.428Z,40.80
2022-10-14T02:50:39.429Z,38.80
2022-10-14T02:51:39.407Z,37.60
2022-10-14T02:52:39.390Z,39.00
2022-10-14T02:53:39.409Z,37.00
2022-10-14T02:54:39.370Z,37.60
2022-10-14T02:55:39.380Z,34.40
2022-10-14T02:56:39.341Z,35.30
2022-10-14T02:57:39.351Z,36.90
2022-10-14T02:58:39.335Z,37.50
2022-10-14T02:59:39.318Z,36.20
2022-10-14T03:00:39.321Z,38.10
2022-10-14T03:01:39.326Z,36.10
2022-10-14T03:02:39.285Z,37.50
2022-10-14T03:03:39.277Z,34.60
2022-10-14T03:04:39.253Z,36.80
2022-10-14T03:05:39.274Z,34.50
2022-10-14T03:06:39.243Z,36.50
2022-10-14T03:07:39.234Z,33.20
2022-10-14T03:08:39.214Z,36.30
2022-10-14T03:09:39.206Z,35.20
2022-10-14T03:10:39.217Z,35.10
2022-10-14T03:11:39.194Z,33.90
2022-10-14T03:12:39.176Z,34.40
2022-10-14T03:13:39.168Z,33.60
2022-10-14T03:14:39.163Z,34.40
2022-10-14T03:15:39.167Z,33.60
2022-10-14T03:16:39.135Z,32.10
2022-10-14T03:17:39.127Z,32.50
2022-10-14T03:18:39.107Z,31.70
2022-10-14T03:19:39.116Z,32.10
2022-10-14T03:20:39.108Z,32.30
2022-10-14T03:21:39.080Z,28.80
2022-10-14T03:22:39.067Z,32.40
2022-10-14T03:23:39.059Z,30.80
2022-10-14T03:24:39.047Z,30.40
2022-10-14T03:25:39.063Z,30.80
2022-10-14T03:26:39.020Z,32.00
2022-10-14T03:27:39.019Z,31.60
2022-10-14T03:28:39.049Z,31.20
2022-10-14T03:29:38.991Z,31.10
2022-10-14T03:30:38.989Z,31.00
2022-10-14T03:31:39.015Z,30.90
2022-10-14T03:32:38.963Z,30.20
2022-10-14T03:33:38.951Z,29.30
2022-10-14T03:34:38.940Z,30.20
2022-10-14T03:35:38.923Z,30.30
2022-10-14T03:36:38.936Z,31.10
2022-10-14T03:37:38.904Z,28.80
2022-10-14T03:38:38.894Z,28.90
2022-10-14T03:39:38.883Z,28.20
2022-10-14T03:40:38.874Z,28.90
2022-10-14T03:41:38.876Z,28.90
2022-10-14T03:42:38.855Z,27.50
2022-10-14T03:43:38.846Z,28.50
2022-10-14T03:44:38.838Z,26.10
2022-10-14T03:45:38.827Z,26.80
2022-10-14T03:46:38.828Z,26.10
2022-10-14T03:47:38.806Z,26.00
2022-10-14T03:48:38.787Z,26.50
2022-10-14T03:49:38.777Z,26.20
2022-10-14T03:50:38.773Z,26.20
2022-10-14T03:51:38.769Z,26.70
2022-10-14T03:52:40.716Z,25.30
2022-10-14T03:53:38.741Z,26.50
2022-10-14T03:54:38.731Z,25.80
2022-10-14T03:55:38.710Z,26.70
2022-10-14T03:56:38.721Z,26.20
2022-10-14T03:57:38.691Z,26.30
2022-10-14T03:58:38.683Z,25.30
2022-10-14T03:59:38.669Z,26.00
2022-10-14T04:00:38.684Z,24.50
2022-10-14T04:01:38.692Z,25.10
2022-10-14T04:02:38.640Z,25.80
2022-10-14T04:03:38.623Z,25.70
2022-10-14T04:04:38.623Z,26.00
2022-10-14T04:05:38.613Z,23.80
2022-10-14T04:06:38.624Z,25.00
2022-10-14T04:07:38.586Z,24.50
2022-10-14T04:08:38.574Z,25.40
2022-10-14T04:09:38.575Z,24.50
2022-10-14T04:10:38.556Z,23.20
2022-10-14T04:11:38.555Z,23.50
2022-10-14T04:12:38.533Z,24.40
2022-10-14T04:13:38.526Z,23.80
2022-10-14T04:14:38.511Z,24.00
2022-10-14T04:15:38.497Z,23.50
2022-10-14T04:16:38.507Z,24.40
2022-10-14T04:17:38.474Z,23.90
2022-10-14T04:18:38.478Z,23.10
2022-10-14T04:19:38.478Z,23.40
2022-10-14T04:20:38.449Z,22.70
2022-10-14T04:21:38.452Z,23.10
2022-10-14T04:22:38.428Z,23.40
2022-10-14T04:23:38.410Z,23.00
2022-10-14T04:24:38.408Z,23.00
2022-10-14T04:25:38.390Z,24.40
2022-10-14T04:26:38.401Z,24.20
2022-10-14T04:27:38.389Z,23.20
2022-10-14T04:28:38.399Z,23.40
2022-10-14T04:29:38.351Z,23.30
2022-10-14T04:30:38.341Z,23.00
2022-10-14T04:31:38.349Z,23.60
2022-10-14T04:32:38.323Z,23.20
2022-10-14T04:33:38.302Z,24.40
2022-10-14T04:34:38.302Z,23.20
2022-10-14T04:35:38.283Z,22.80
2022-10-14T04:36:38.305Z,23.00
2022-10-14T04:37:38.264Z,24.00
2022-10-14T04:38:38.340Z,21.70
2022-10-14T04:39:38.245Z,23.50
2022-10-14T04:40:38.236Z,23.40
2022-10-14T04:41:38.245Z,23.90
2022-10-14T04:42:38.223Z,24.80
2022-10-14T04:43:38.206Z,24.10
2022-10-14T04:44:38.195Z,24.30
2022-10-14T04:45:38.178Z,23.30
2022-10-14T04:46:38.189Z,23.30
2022-10-14T04:47:38.187Z,24.00
2022-10-14T04:48:38.166Z,22.50
2022-10-14T04:49:38.137Z,23.30
2022-10-14T04:50:38.129Z,23.80
2022-10-14T04:51:38.141Z,22.90
2022-10-14T04:52:38.109Z,22.40
2022-10-14T04:53:38.089Z,23.60
2022-10-14T04:54:38.087Z,22.00
2022-10-14T04:55:38.070Z,21.60
2022-10-14T04:56:38.080Z,23.50
2022-10-14T04:57:38.052Z,21.70
2022-10-14T04:58:38.042Z,23.60
2022-10-14T04:59:38.032Z,23.20
2022-10-14T05:00:38.041Z,23.10
2022-10-14T05:01:38.163Z,22.10
2022-10-14T05:02:38.051Z,22.30
2022-10-14T05:03:37.993Z,22.80
2022-10-14T05:04:38.002Z,24.20
2022-10-14T05:05:37.964Z,23.40
2022-10-14T05:06:37.997Z,23.20
2022-10-14T05:07:37.953Z,23.00
2022-10-14T05:08:37.935Z,22.70
2022-10-14T05:09:37.927Z,23.30
2022-10-14T05:10:37.919Z,23.50
2022-10-14T05:11:37.915Z,23.10
2022-10-14T05:12:37.895Z,23.40
2022-10-14T05:13:37.887Z,22.90
2022-10-14T05:14:37.876Z,23.20
2022-10-14T05:15:37.864Z,23.80
2022-10-14T05:16:37.877Z,24.90
2022-10-14T05:17:37.837Z,23.80
2022-10-14T05:18:37.828Z,22.90
2022-10-14T05:19:38.031Z,23.80
2022-10-14T05:20:37.808Z,22.80
2022-10-14T05:21:37.816Z,22.90
2022-10-14T05:22:37.788Z,23.40
2022-10-14T05:23:37.730Z,21.90
2022-10-14T05:24:37.710Z,23.20
2022-10-14T05:25:37.752Z,23.80
2022-10-14T05:26:37.769Z,22.60
2022-10-14T05:27:37.730Z,24.90
2022-10-14T05:28:37.783Z,23.30
2022-10-14T05:29:37.711Z,24.60
2022-10-14T05:30:37.663Z,24.10
2022-10-14T05:31:37.716Z,23.20
2022-10-14T05:32:37.696Z,23.70
2022-10-14T05:33:37.625Z,23.80
2022-10-14T05:34:37.611Z,24.30
2022-10-14T05:35:57.650Z,25.40
2022-10-14T05:36:38.603Z,23.40
2022-10-14T05:37:37.575Z,23.80
2022-10-14T05:38:37.565Z,23.70
2022-10-14T05:39:37.554Z,23.80
2022-10-14T05:40:37.548Z,23.20
2022-10-14T05:41:37.545Z,22.00
2022-10-14T05:42:37.524Z,23.30
2022-10-14T05:43:37.506Z,24.80
2022-10-14T05:44:37.510Z,23.10
2022-10-14T05:45:37.495Z,23.10
2022-10-14T05:46:37.504Z,23.00
2022-10-14T05:47:37.467Z,22.20
2022-10-14T05:48:37.457Z,23.00
2022-10-14T05:49:37.441Z,22.50
2022-10-14T05:50:37.438Z,22.20
2022-10-14T05:51:37.438Z,20.10
2022-10-14T05:52:37.418Z,22.70
2022-10-14T05:53:37.402Z,21.70
2022-10-14T05:54:37.401Z,23.10
2022-10-14T05:55:37.379Z,24.30
2022-10-14T05:56:37.389Z,22.60
2022-10-14T05:57:37.360Z,22.30
2022-10-14T05:58:37.361Z,22.70
2022-10-14T05:59:37.351Z,23.20
2022-10-14T06:00:37.348Z,23.40
2022-10-14T06:01:37.334Z,22.30
2022-10-14T06:02:37.316Z,22.40
2022-10-14T06:03:37.293Z,22.40
2022-10-14T06:04:37.294Z,23.30
2022-10-14T06:05:37.272Z,22.50
2022-10-14T06:06:37.284Z,21.80
2022-10-14T06:07:37.251Z,23.20
2022-10-14T06:08:37.254Z,22.70
2022-10-14T06:09:37.227Z,23.30
2022-10-14T06:10:37.232Z,23.50
2022-10-14T06:11:37.226Z,22.30
2022-10-14T06:12:37.205Z,22.80
2022-10-14T06:13:37.186Z,22.90
2022-10-14T06:14:37.178Z,24.20
2022-10-14T06:15:37.166Z,23.20
2022-10-14T06:16:37.176Z,23.60
2022-10-14T06:17:37.149Z,23.50
2022-10-14T06:18:37.141Z,24.00
2022-10-14T06:19:37.125Z,23.40
2022-10-14T06:20:37.119Z,23.70
2022-10-14T06:21:37.120Z,24.60
2022-10-14T06:22:37.090Z,24.70
2022-10-14T06:23:37.079Z,24.20
2022-10-14T06:24:37.070Z,23.30
2022-10-14T06:25:37.061Z,23.10
2022-10-14T06:26:37.080Z,23.50
2022-10-14T06:27:37.032Z,24.70
2022-10-14T06:28:37.073Z,22.80
2022-10-14T06:29:37.014Z,23.30
2022-10-14T06:30:37.011Z,23.30
2022-10-14T06:31:37.012Z,23.70
2022-10-14T06:32:36.983Z,23.90
2022-10-14T06:33:36.972Z,23.50
2022-10-14T06:34:36.971Z,24.10
2022-10-14T06:35:36.954Z,23.30
2022-10-14T06:36:36.953Z,24.40
2022-10-14T06:37:36.928Z,23.80
2022-10-14T06:38:36.923Z,24.40
2022-10-14T06:39:36.904Z,24.20
2022-10-14T06:40:36.905Z,24.60
2022-10-14T06:41:36.895Z,24.90
2022-10-14T06:42:36.877Z,24.80
2022-10-14T06:43:36.866Z,25.30
2022-10-14T06:44:36.861Z,25.20
2022-10-14T06:45:36.847Z,25.40
2022-10-14T06:46:36.863Z,25.50
2022-10-14T06:47:36.821Z,25.70
2022-10-14T06:48:36.824Z,26.50
2022-10-14T06:49:36.797Z,28.00
2022-10-14T06:50:36.789Z,26.50
2022-10-14T06:51:36.797Z,26.10
2022-10-14T06:52:36.776Z,27.10
2022-10-14T06:53:36.759Z,27.50
2022-10-14T06:54:39.333Z,27.30
2022-10-14T06:55:36.741Z,28.30
2022-10-14T06:56:36.760Z,28.30
2022-10-14T06:57:36.710Z,28.60
2022-10-14T06:58:36.715Z,27.40
2022-10-14T06:59:36.699Z,26.80
2022-10-14T07:00:36.735Z,29.60
2022-10-14T07:01:36.755Z,28.30
2022-10-14T07:02:36.668Z,29.40
2022-10-14T07:03:36.664Z,28.00
2022-10-14T07:04:36.644Z,29.40
2022-10-14T07:05:36.624Z,30.50
2022-10-14T07:06:36.640Z,29.70
2022-10-14T07:07:36.604Z,29.60
2022-10-14T07:08:36.607Z,29.40
2022-10-14T07:09:36.585Z,30.60
2022-10-14T07:10:36.575Z,31.30
2022-10-14T07:11:36.582Z,29.80
2022-10-14T07:12:36.564Z,31.80
2022-10-14T07:13:36.537Z,30.60
2022-10-14T07:14:36.537Z,31.20
2022-10-14T07:15:36.535Z,29.70
2022-10-14T07:16:36.527Z,31.30
2022-10-14T07:17:36.497Z,31.30
2022-10-14T07:18:36.495Z,29.70
2022-10-14T07:19:36.477Z,30.70
2022-10-14T07:20:36.472Z,30.30
2022-10-14T07:21:36.479Z,29.60
2022-10-14T07:22:38.823Z,29.70
2022-10-14T07:23:36.429Z,30.10
2022-10-14T07:24:36.430Z,30.20
2022-10-14T07:25:36.427Z,30.50
2022-10-14T07:26:36.421Z,29.20
2022-10-14T07:27:36.392Z,31.00
2022-10-14T07:28:36.441Z,30.30
2022-10-14T07:29:36.375Z,29.80
2022-10-14T07:30:36.373Z,29.20
2022-10-14T07:31:36.363Z,29.40
2022-10-14T07:32:36.342Z,29.40
2022-10-14T07:34:36.331Z,28.70
2022-10-14T07:35:36.304Z,27.50
2022-10-14T07:36:36.316Z,29.50
2022-10-14T07:37:36.284Z,28.80
2022-10-14T07:38:36.284Z,29.80
2022-10-14T07:39:36.266Z,29.10
2022-10-14T07:40:36.255Z,29.10
2022-10-14T07:41:36.255Z,28.50
2022-10-14T07:42:36.244Z,29.30
2022-10-14T07:43:36.222Z,30.20
2022-10-14T07:44:36.214Z,28.70
2022-10-14T07:45:36.200Z,28.40
2022-10-14T07:46:36.207Z,30.00
2022-10-14T07:47:36.185Z,28.40
2022-10-14T07:48:55.947Z,30.70
2022-10-14T07:49:37.168Z,27.30
2022-10-14T07:50:36.152Z,29.10
2022-10-14T07:51:36.158Z,27.50
2022-10-14T07:52:36.121Z,28.70
2022-10-14T07:53:36.120Z,27.20
2022-10-14T07:54:36.100Z,28.60
2022-10-14T07:55:36.090Z,28.30
2022-10-14T07:56:36.100Z,28.60
2022-10-14T07:57:36.071Z,28.20
2022-10-14T07:58:36.074Z,28.50
2022-10-14T07:59:36.062Z,28.90
2022-10-14T08:00:36.048Z,27.70
2022-10-14T08:01:36.121Z,28.40
2022-10-14T08:02:36.012Z,29.70
2022-10-14T08:03:36.012Z,29.40
2022-10-14T08:04:35.993Z,29.50
2022-10-14T08:05:38.566Z,28.10
2022-10-14T08:06:35.994Z,28.30
2022-10-14T08:07:35.965Z,27.80
2022-10-14T08:08:35.954Z,27.90
2022-10-14T08:09:35.949Z,26.70
2022-10-14T08:10:35.927Z,25.50
2022-10-14T08:11:35.944Z,27.30
2022-10-14T08:12:35.943Z,26.30
2022-10-14T08:13:35.909Z,25.10
2022-10-14T08:14:35.887Z,24.40
2022-10-14T08:15:35.877Z,24.20
2022-10-14T08:16:35.888Z,25.20
2022-10-14T08:17:35.865Z,23.50
2022-10-14T08:18:35.848Z,24.00
2022-10-14T08:19:35.837Z,23.10
2022-10-14T08:20:35.834Z,23.00
2022-10-14T08:21:35.837Z,24.30
2022-10-14T08:22:35.800Z,23.10
2022-10-14T08:23:35.799Z,22.80
2022-10-14T08:24:35.781Z,23.70
2022-10-14T08:25:35.789Z,22.60
2022-10-14T08:26:35.781Z,21.80
2022-10-14T08:27:35.770Z,21.90
2022-10-14T08:28:35.761Z,22.60
2022-10-14T08:29:35.732Z,23.60
2022-10-14T08:30:35.712Z,23.10
2022-10-14T08:31:35.749Z,23.10
2022-10-14T08:32:35.699Z,23.00
2022-10-14T08:33:35.693Z,22.20
2022-10-14T08:34:35.673Z,21.80
2022-10-14T08:35:35.678Z,21.40
2022-10-14T08:36:35.667Z,21.30
2022-10-14T08:37:35.653Z,21.20
2022-10-14T08:38:35.635Z,20.90
2022-10-14T08:39:35.626Z,20.80
2022-10-14T08:40:35.615Z,20.40
2022-10-14T08:41:35.616Z,20.90
2022-10-14T08:42:35.587Z,19.70
2022-10-14T08:43:35.578Z,19.30
2022-10-14T08:44:35.568Z,19.70
2022-10-14T08:45:35.558Z,19.50
2022-10-14T08:46:35.567Z,19.20
2022-10-14T08:47:35.538Z,18.70
2022-10-14T08:48:35.525Z,18.60
2022-10-14T08:49:35.519Z,19.50
2022-10-14T08:50:35.500Z,17.10
2022-10-14T08:51:35.518Z,16.90
2022-10-14T08:52:37.827Z,16.60
2022-10-14T08:53:35.488Z,15.80
2022-10-14T08:54:35.481Z,15.70
2022-10-14T08:55:35.459Z,15.70
2022-10-14T08:56:35.462Z,14.90
2022-10-14T08:57:35.433Z,14.80
2022-10-14T08:58:35.442Z,14.20
2022-10-14T08:59:35.420Z,14.80
2022-10-14T09:00:35.412Z,13.90
2022-10-14T09:01:35.414Z,14.10
2022-10-14T09:02:35.384Z,12.50
2022-10-14T09:03:35.364Z,13.60
2022-10-14T09:04:35.356Z,14.10
2022-10-14T09:05:35.352Z,13.10
2022-10-14T09:06:35.352Z,13.10
2022-10-14T09:07:35.325Z,12.80
2022-10-14T09:08:35.316Z,12.70
2022-10-14T09:09:35.305Z,12.60
2022-10-14T09:10:35.296Z,13.30
2022-10-14T09:11:35.307Z,12.00
2022-10-14T09:12:35.278Z,13.20
2022-10-14T09:13:35.269Z,11.80
2022-10-14T09:14:35.248Z,12.10
2022-10-14T09:15:35.247Z,12.10
2022-10-14T09:16:35.247Z,12.40
2022-10-14T09:17:37.786Z,12.00
2022-10-14T09:18:35.216Z,12.60
2022-10-14T09:19:35.210Z,11.00
2022-10-14T09:20:35.201Z,11.50
2022-10-14T09:22:36.160Z,10.40
2022-10-14T09:23:35.161Z,11.20
2022-10-14T09:24:35.153Z,10.40
2022-10-14T09:25:35.144Z,10.90
2022-10-14T09:26:35.143Z,10.90
2022-10-14T09:27:35.137Z,11.40
2022-10-14T09:28:35.170Z,11.20
2022-10-14T09:29:35.099Z,11.10
2022-10-14T09:30:35.084Z,11.60
2022-10-14T09:31:35.098Z,11.30
2022-10-14T09:32:35.061Z,11.00
2022-10-14T09:33:38.274Z,11.10
2022-10-14T09:34:36.036Z,10.80
2022-10-14T09:35:35.044Z,11.80
2022-10-14T09:36:35.041Z,11.30
2022-10-14T09:37:35.008Z,10.30
2022-10-14T09:38:34.995Z,10.70
2022-10-14T09:39:35.006Z,10.70
2022-10-14T09:40:34.975Z,11.20
2022-10-14T09:41:34.997Z,11.30
2022-10-14T09:42:34.954Z,11.10
2022-10-14T09:43:35.020Z,12.00
2022-10-14T09:44:34.928Z,11.60
2022-10-14T09:45:34.927Z,10.90
2022-10-14T09:46:34.929Z,11.90
2022-10-14T09:47:34.909Z,11.50
2022-10-14T09:48:34.899Z,11.60
2022-10-14T09:49:34.889Z,12.10
2022-10-14T09:50:34.869Z,12.00
2022-10-14T09:51:34.885Z,11.70
2022-10-14T09:52:34.851Z,12.00
2022-10-14T09:53:34.850Z,12.90
2022-10-14T09:54:34.843Z,12.00
2022-10-14T09:55:34.821Z,12.70
2022-10-14T09:56:38.977Z,12.40
2022-10-14T09:57:35.813Z,13.80
2022-10-14T09:58:34.782Z,13.60
2022-10-14T09:59:34.783Z,14.20
2022-10-14T10:00:34.764Z,13.30
2022-10-14T10:01:34.786Z,13.20
2022-10-14T10:02:34.756Z,13.50
2022-10-14T10:03:34.735Z,13.60
2022-10-14T10:04:34.734Z,12.70
2022-10-14T10:05:34.720Z,13.90
2022-10-14T10:06:34.724Z,12.60
2022-10-14T10:07:34.696Z,12.10
2022-10-14T10:08:34.686Z,13.00
2022-10-14T10:09:34.677Z,13.10
2022-10-14T10:10:34.657Z,13.10
2022-10-14T10:11:34.669Z,12.30
2022-10-14T10:12:34.665Z,13.60
2022-10-14T10:13:34.639Z,13.00
2022-10-14T10:14:34.619Z,13.50
2022-10-14T10:15:34.619Z,13.20
2022-10-14T10:16:34.609Z,13.60
2022-10-14T10:17:34.591Z,14.10
2022-10-14T10:18:34.570Z,13.50
2022-10-14T10:19:34.569Z,13.30
2022-10-14T10:20:34.560Z,13.60
2022-10-14T10:21:34.562Z,13.40
2022-10-14T10:22:34.544Z,13.00
2022-10-14T10:23:34.525Z,13.10
2022-10-14T10:24:34.501Z,13.40
2022-10-14T10:25:34.512Z,13.40
2022-10-14T10:26:34.508Z,13.30
2022-10-14T10:27:34.483Z,13.90
2022-10-14T10:28:34.528Z,13.80
2022-10-14T10:29:34.456Z,13.60
2022-10-14T10:30:34.444Z,14.10
2022-10-14T10:31:34.490Z,13.60
2022-10-14T10:32:34.423Z,13.80
2022-10-14T10:33:34.415Z,12.90
2022-10-14T10:34:34.403Z,13.40
2022-10-14T10:35:34.395Z,13.30
2022-10-14T10:36:34.396Z,12.70
2022-10-14T10:37:34.377Z,12.50
2022-10-14T10:38:34.357Z,12.00
2022-10-14T10:39:34.349Z,12.50
2022-10-14T10:40:34.422Z,12.70
2022-10-14T10:41:34.365Z,12.60
2022-10-14T10:42:34.319Z,13.00
2022-10-14T10:43:34.319Z,12.60
2022-10-14T10:44:34.298Z,13.00
2022-10-14T10:45:36.607Z,13.00
2022-10-14T10:46:34.291Z,12.20
2022-10-14T10:47:34.267Z,13.60
2022-10-14T10:48:34.260Z,12.60
2022-10-14T10:49:34.253Z,13.10
2022-10-14T10:50:34.231Z,12.70
2022-10-14T10:51:34.243Z,13.90
2022-10-14T10:52:34.222Z,13.90
2022-10-14T10:53:34.202Z,13.10
2022-10-14T10:54:34.184Z,12.60
2022-10-14T10:55:34.263Z,12.80
2022-10-14T10:56:34.184Z,11.50
2022-10-14T10:57:34.165Z,11.80
2022-10-14T10:58:34.145Z,11.90
2022-10-14T10:59:34.147Z,11.30
2022-10-14T11:00:34.128Z,12.30
2022-10-14T11:01:34.158Z,11.40
2022-10-14T11:02:34.104Z,11.00
2022-10-14T11:03:34.110Z,10.70
2022-10-14T11:04:34.093Z,10.50
2022-10-14T11:05:34.077Z,10.00
2022-10-14T11:06:34.078Z,10.80
2022-10-14T11:07:34.059Z,9.40
2022-10-14T11:08:34.265Z,9.20
2022-10-14T11:09:34.035Z,9.00
2022-10-14T11:10:34.029Z,9.00
2022-10-14T11:11:34.028Z,9.00
2022-10-14T11:12:33.999Z,9.70
2022-10-14T11:13:33.990Z,9.10
2022-10-14T11:14:33.979Z,9.10
2022-10-14T11:15:33.970Z,8.90
2022-10-14T11:16:33.950Z,9.30
2022-10-14T11:17:34.033Z,9.30
2022-10-14T11:18:33.965Z,8.20
2022-10-14T11:19:33.931Z,9.10
2022-10-14T11:20:33.932Z,8.10
2022-10-14T11:21:33.902Z,8.50
2022-10-14T11:22:33.903Z,9.00
2022-10-14T11:23:33.891Z,9.20
2022-10-14T11:24:33.866Z,8.90
2022-10-14T11:25:33.864Z,9.50
2022-10-14T11:27:33.855Z,8.80
2022-10-14T11:28:33.852Z,8.50
2022-10-14T11:29:33.825Z,9.30
2022-10-14T11:30:33.807Z,9.30
2022-10-14T11:31:33.806Z,9.30
2022-10-14T11:32:33.806Z,9.30
2022-10-14T11:33:38.871Z,9.20
2022-10-14T11:34:34.757Z,9.40
2022-10-14T11:36:33.748Z,9.80
2022-10-14T11:37:33.749Z,9.80
2022-10-14T11:39:35.657Z,9.80
2022-10-14T11:40:33.709Z,10.10
2022-10-14T11:41:33.691Z,9.20
2022-10-14T11:42:33.699Z,10.60
2022-10-14T11:43:33.672Z,10.10
2022-10-14T11:45:33.739Z,10.00
2022-10-14T11:46:33.641Z,9.40
2022-10-14T11:47:33.664Z,10.00
2022-10-14T11:48:33.613Z,10.20
2022-10-14T11:49:33.611Z,9.60
2022-10-14T11:50:33.595Z,9.60
2022-10-14T11:51:35.788Z,10.10
2022-10-14T11:52:33.593Z,10.20
2022-10-14T11:53:33.586Z,9.20
2022-10-14T11:54:33.552Z,9.20
2022-10-14T11:55:33.551Z,9.20
2022-10-14T11:56:33.541Z,8.90
2022-10-14T11:57:33.546Z,9.60
2022-10-14T11:58:33.505Z,9.40
2022-10-14T11:59:33.525Z,8.30
2022-10-14T12:00:33.488Z,8.90
2022-10-14T12:01:35.832Z,9.30
2022-10-14T12:02:33.520Z,9.90
2022-10-14T12:03:33.459Z,8.70
2022-10-14T12:04:33.457Z,8.80
2022-10-14T12:05:33.437Z,9.10
2022-10-14T12:06:33.427Z,8.90
2022-10-14T12:07:33.439Z,8.70
2022-10-14T12:08:35.630Z,8.70
2022-10-14T12:09:33.412Z,8.50
2022-10-14T12:10:33.389Z,8.50
2022-10-14T12:11:33.370Z,8.60
2022-10-14T12:12:33.388Z,8.20
2022-10-14T12:13:33.351Z,8.20
2022-10-14T12:14:33.351Z,7.80
2022-10-14T12:15:33.333Z,8.60
2022-10-14T12:16:33.330Z,8.00
2022-10-14T12:17:33.331Z,7.80
2022-10-14T12:18:33.412Z,8.70
2022-10-14T12:19:33.283Z,8.20
2022-10-14T12:20:33.291Z,8.40
2022-10-14T12:21:33.272Z,8.10
2022-10-14T12:22:33.290Z,8.30
2022-10-14T12:23:33.254Z,8.40
2022-10-14T12:24:33.245Z,8.00
2022-10-14T12:25:33.227Z,7.40
2022-10-14T12:26:33.222Z,7.80
2022-10-14T12:27:33.267Z,7.60
2022-10-14T12:28:33.242Z,8.00
2022-10-14T12:29:33.202Z,7.70
2022-10-14T12:30:33.176Z,8.00
2022-10-14T12:31:33.177Z,7.40
2022-10-14T12:32:33.176Z,7.60
2022-10-14T12:33:33.139Z,7.50
2022-10-14T12:34:33.139Z,7.00
2022-10-14T12:35:33.120Z,7.60
2022-10-14T12:36:33.204Z,6.80
2022-10-14T12:37:33.372Z,7.50
2022-10-14T12:38:33.098Z,7.50
2022-10-14T12:39:33.108Z,7.40
2022-10-14T12:40:33.078Z,7.60
2022-10-14T12:41:33.059Z,7.50
2022-10-14T12:42:33.071Z,7.40
2022-10-14T12:43:33.033Z,7.00
2022-10-14T12:44:33.033Z,6.40
2022-10-14T12:45:33.156Z,6.00
2022-10-14T12:46:33.010Z,6.30
2022-10-14T12:47:33.016Z,6.30
2022-10-14T12:48:32.994Z,6.30
2022-10-14T12:49:32.974Z,6.80
2022-10-14T12:50:32.982Z,6.00
2022-10-14T12:51:32.967Z,6.20
2022-10-14T12:52:32.964Z,5.60
2022-10-14T12:53:32.935Z,5.80
2022-10-14T12:54:32.924Z,5.50
2022-10-14T12:55:32.915Z,5.60
2022-10-14T12:56:32.910Z,6.00
2022-10-14T12:57:33.768Z,5.30
2022-10-14T12:58:32.888Z,5.30
2022-10-14T12:59:32.877Z,5.20
2022-10-14T13:00:32.871Z,5.50
2022-10-14T13:01:35.559Z,5.30
2022-10-14T13:02:32.860Z,5.80